createdAt,value
2017-05-02T00:00:18.035Z,20.55
2017-05-02T00:01:02.071Z,20.57
2017-05-02T00:01:46.277Z,20.58
2017-05-02T00:02:28.508Z,20.57
2017-05-02T00:03:12.588Z,20.58
2017-05-02T00:03:55.011Z,20.54
2017-05-02T00:04:36.519Z,20.57
2017-05-02T00:05:19.511Z,20.57
2017-05-02T00:06:04.569Z,20.58
2017-05-02T00:06:48.543Z,20.52
2017-05-02T00:07:32.549Z,20.5
2017-05-02T00:08:16.577Z,20.59
2017-05-02T00:08:58.748Z,20.57
2017-05-02T00:09:49.571Z,20.57
2017-05-02T00:10:32.104Z,20.58
2017-05-02T00:11:16.065Z,20.59
2017-05-02T00:12:00.070Z,20.57
2017-05-02T00:12:43.068Z,20.58
2017-05-02T00:13:26.718Z,20.58
2017-05-02T00:14:10.611Z,20.54
2017-05-02T00:14:54.297Z,20.5
2017-05-02T00:15:38.547Z,20.55
2017-05-02T00:16:22.070Z,20.57
2017-05-02T00:17:06.239Z,20.5
2017-05-02T00:17:50.131Z,20.54
2017-05-02T00:18:32.949Z,20.57
2017-05-02T00:19:16.126Z,20.55
2017-05-02T00:21:08.421Z,20.54
2017-05-02T00:21:51.899Z,20.58
2017-05-02T00:22:34.419Z,20.48
2017-05-02T00:23:17.914Z,20.54
2017-05-02T00:24:01.964Z,20.52
2017-05-02T00:24:45.912Z,20.51
2017-05-02T00:25:29.189Z,20.55
2017-05-02T00:26:11.863Z,20.5
2017-05-02T00:26:55.954Z,20.58
2017-05-02T00:27:38.940Z,20.51
2017-05-02T00:28:22.983Z,20.55
2017-05-02T00:29:05.933Z,20.59
2017-05-02T00:29:50.931Z,20.61
2017-05-02T00:30:34.967Z,20.54
2017-05-02T00:31:18.314Z,20.57
2017-05-02T00:32:02.456Z,20.54
2017-05-02T00:32:46.407Z,20.55
2017-05-02T00:33:30.433Z,20.59
2017-05-02T00:34:14.163Z,20.64
2017-05-02T00:34:57.925Z,20.57
2017-05-02T00:35:41.411Z,20.54
2017-05-02T00:36:25.253Z,20.59
2017-05-02T00:37:07.522Z,20.61
2017-05-02T00:37:50.984Z,20.51
2017-05-02T00:38:34.453Z,20.52
2017-05-02T00:39:17.595Z,20.55
2017-05-02T00:40:01.451Z,20.51
2017-05-02T00:40:44.938Z,20.59
2017-05-02T00:42:43.094Z,20.55
2017-05-02T00:43:27.204Z,20.58
2017-05-02T00:44:10.583Z,20.58
2017-05-02T00:44:55.056Z,20.58
2017-05-02T00:45:39.590Z,20.54
2017-05-02T00:46:23.401Z,20.58
2017-05-02T00:47:07.270Z,20.55
2017-05-02T00:47:50.619Z,20.54
2017-05-02T00:48:34.215Z,20.54
2017-05-02T00:49:16.618Z,20.57
2017-05-02T00:49:58.544Z,20.55
2017-05-02T00:50:41.582Z,20.58
2017-05-02T00:51:26.574Z,20.61
2017-05-02T00:52:10.226Z,20.62
2017-05-02T00:52:53.221Z,20.52
2017-05-02T00:53:38.079Z,20.58
2017-05-02T00:54:21.575Z,20.57
2017-05-02T00:55:03.770Z,20.52
2017-05-02T00:55:47.308Z,20.54
2017-05-02T00:56:31.052Z,20.52
2017-05-02T00:57:14.557Z,20.54
2017-05-02T00:57:57.568Z,20.58
2017-05-02T00:58:41.121Z,20.55
2017-05-02T00:59:25.090Z,20.55
2017-05-02T01:00:09.593Z,20.52
2017-05-02T01:00:53.079Z,20.58
2017-05-02T01:01:53.251Z,20.58
2017-05-02T01:02:35.160Z,20.52
2017-05-02T01:03:18.234Z,20.58
2017-05-02T01:04:00.145Z,20.58
2017-05-02T01:04:43.138Z,20.55
2017-05-02T01:05:27.073Z,20.54
2017-05-02T01:06:10.227Z,20.52
2017-05-02T01:06:55.113Z,20.58
2017-05-02T01:07:38.560Z,20.54
2017-05-02T01:08:21.439Z,20.55
2017-05-02T01:09:05.086Z,20.51
2017-05-02T01:09:47.045Z,20.48
2017-05-02T01:10:29.501Z,20.57
2017-05-02T01:11:13.384Z,20.59
2017-05-02T01:13:16.217Z,20.51
2017-05-02T01:13:59.209Z,20.54
2017-05-02T01:14:43.225Z,20.59
2017-05-02T01:15:25.720Z,20.5
2017-05-02T01:16:09.262Z,20.55
2017-05-02T01:16:51.493Z,20.57
2017-05-02T01:17:33.399Z,20.55
2017-05-02T01:18:18.205Z,20.54
2017-05-02T01:19:00.927Z,20.52
2017-05-02T01:19:44.310Z,20.55
2017-05-02T01:20:26.611Z,20.5
2017-05-02T01:21:10.953Z,20.59
2017-05-02T01:23:28.116Z,20.55
2017-05-02T01:24:11.792Z,20.51
2017-05-02T01:24:55.806Z,20.57
2017-05-02T01:25:40.025Z,20.58
2017-05-02T01:26:24.275Z,20.58
2017-05-02T01:27:08.265Z,20.51
2017-05-02T01:27:53.267Z,20.52
2017-05-02T01:28:37.281Z,20.52
2017-05-02T01:29:21.810Z,20.55
2017-05-02T01:30:05.787Z,20.52
2017-05-02T01:30:49.314Z,20.51
2017-05-02T01:31:33.096Z,20.51
2017-05-02T01:32:15.486Z,20.59
2017-05-02T01:32:59.054Z,20.5
2017-05-02T01:33:43.279Z,20.5
2017-05-02T01:34:26.298Z,20.51
2017-05-02T01:35:10.125Z,20.57
2017-05-02T01:35:51.526Z,20.57
2017-05-02T01:36:36.268Z,20.48
2017-05-02T01:37:21.297Z,20.52
2017-05-02T01:38:05.817Z,20.51
2017-05-02T01:38:49.814Z,20.54
2017-05-02T01:39:34.795Z,20.48
2017-05-02T01:40:17.931Z,20.55
2017-05-02T01:41:01.757Z,20.48
2017-05-02T01:41:45.788Z,20.54
2017-05-02T01:42:30.106Z,20.5
2017-05-02T01:44:32.447Z,20.52
2017-05-02T01:45:16.468Z,20.58
2017-05-02T01:46:00.435Z,20.58
2017-05-02T01:46:43.699Z,20.51
2017-05-02T01:47:27.494Z,20.51
2017-05-02T01:48:08.508Z,20.54
2017-05-02T01:48:51.483Z,20.48
2017-05-02T01:49:34.449Z,20.52
2017-05-02T01:50:18.608Z,20.54
2017-05-02T01:51:01.980Z,20.58
2017-05-02T01:51:46.480Z,20.52
2017-05-02T01:52:29.987Z,20.54
2017-05-02T01:53:13.953Z,20.47
2017-05-02T01:53:57.938Z,20.57
2017-05-02T01:54:42.990Z,20.51
2017-05-02T01:55:26.130Z,20.61
2017-05-02T01:56:08.819Z,20.52
2017-05-02T01:56:52.962Z,20.5
2017-05-02T01:57:35.293Z,20.55
2017-05-02T01:58:19.953Z,20.52
2017-05-02T01:59:02.992Z,20.51
2017-05-02T01:59:47.507Z,20.57
2017-05-02T02:00:28.994Z,20.47
2017-05-02T02:01:13.093Z,20.48
2017-05-02T02:01:56.480Z,20.57
2017-05-02T02:02:40.977Z,20.47
2017-05-02T02:03:25.631Z,20.54
2017-05-02T02:04:07.801Z,20.54
2017-05-02T02:04:50.437Z,20.58
2017-05-02T02:05:34.714Z,20.52
2017-05-02T02:06:18.473Z,20.54
2017-05-02T02:07:03.463Z,20.54
2017-05-02T02:07:47.960Z,20.57
2017-05-02T02:08:32.116Z,20.48
2017-05-02T02:09:16.486Z,20.47
2017-05-02T02:09:59.441Z,20.55
2017-05-02T02:10:43.449Z,20.57
2017-05-02T02:11:25.704Z,20.52
2017-05-02T02:12:09.459Z,20.57
2017-05-02T02:12:53.001Z,20.52
2017-05-02T02:13:34.909Z,20.48
2017-05-02T02:14:18.460Z,20.57
2017-05-02T02:15:02.667Z,20.57
2017-05-02T02:15:46.518Z,20.59
2017-05-02T02:16:29.955Z,20.54
2017-05-02T02:17:12.378Z,20.58
2017-05-02T02:17:55.444Z,20.48
2017-05-02T02:18:39.654Z,20.42
2017-05-02T02:19:21.444Z,20.55
2017-05-02T02:20:05.532Z,20.54
2017-05-02T02:20:50.459Z,20.52
2017-05-02T02:21:33.870Z,20.57
2017-05-02T02:22:17.987Z,20.43
2017-05-02T02:23:01.985Z,20.55
2017-05-02T02:24:54.094Z,20.51
2017-05-02T02:25:36.100Z,20.52
2017-05-02T02:26:17.628Z,20.55
2017-05-02T02:27:01.121Z,20.52
2017-05-02T02:27:46.113Z,20.51
2017-05-02T02:28:29.620Z,20.48
2017-05-02T02:29:10.511Z,20.58
2017-05-02T02:29:55.602Z,20.47
2017-05-02T02:30:38.167Z,20.41
2017-05-02T02:31:21.504Z,20.54
2017-05-02T02:32:05.119Z,20.5
2017-05-02T02:32:47.017Z,20.43
2017-05-02T02:33:29.486Z,20.48
2017-05-02T02:34:13.622Z,20.58
2017-05-02T02:34:57.671Z,20.54
2017-05-02T02:35:40.118Z,20.58
2017-05-02T02:36:23.129Z,20.58
2017-05-02T02:37:05.207Z,20.52
2017-05-02T02:37:47.641Z,20.54
2017-05-02T02:38:31.062Z,20.59
2017-05-02T02:39:16.126Z,20.59
2017-05-02T02:39:58.785Z,20.55
2017-05-02T02:40:41.835Z,20.59
2017-05-02T02:41:26.654Z,20.47
2017-05-02T02:42:10.641Z,20.58
2017-05-02T02:42:53.131Z,20.51
2017-05-02T02:43:37.607Z,20.57
2017-05-02T02:45:35.795Z,20.48
2017-05-02T02:46:19.284Z,20.52
2017-05-02T02:47:03.300Z,20.52
2017-05-02T02:47:47.499Z,20.54
2017-05-02T02:48:30.611Z,20.5
2017-05-02T02:49:14.269Z,20.55
2017-05-02T02:49:57.514Z,20.58
2017-05-02T02:50:41.367Z,20.55
2017-05-02T02:51:24.450Z,20.54
2017-05-02T02:52:06.297Z,20.59
2017-05-02T02:52:51.365Z,20.55
2017-05-02T02:53:33.465Z,20.55
2017-05-02T02:54:17.459Z,20.58
2017-05-02T02:55:01.797Z,20.52
2017-05-02T02:55:43.157Z,20.48
2017-05-02T02:56:26.442Z,20.51
2017-05-02T02:57:11.293Z,20.54
2017-05-02T02:57:55.307Z,20.43
2017-05-02T02:58:39.030Z,20.43
2017-05-02T02:59:23.327Z,20.51
2017-05-02T03:00:07.602Z,20.42
2017-05-02T03:00:50.815Z,20.5
2017-05-02T03:01:33.298Z,20.47
2017-05-02T03:02:17.549Z,20.55
2017-05-02T03:03:01.808Z,20.52
2017-05-02T03:03:44.229Z,20.57
2017-05-02T03:04:25.824Z,20.5
2017-05-02T03:05:09.286Z,20.52
2017-05-02T03:06:08.024Z,20.5
2017-05-02T03:06:51.314Z,20.54
2017-05-02T03:07:34.504Z,20.52
2017-05-02T03:08:18.316Z,20.48
2017-05-02T03:09:02.299Z,20.54
2017-05-02T03:09:46.516Z,20.51
2017-05-02T03:10:29.825Z,20.43
2017-05-02T03:11:11.796Z,20.43
2017-05-02T03:11:53.696Z,20.47
2017-05-02T03:12:37.251Z,20.42
2017-05-02T03:13:21.289Z,20.43
2017-05-02T03:14:04.820Z,20.47
2017-05-02T03:14:47.452Z,20.58
2017-05-02T03:15:31.308Z,20.5
2017-05-02T03:16:13.812Z,20.57
2017-05-02T03:16:56.417Z,20.5
2017-05-02T03:17:41.323Z,20.42
2017-05-02T03:18:24.861Z,20.43
2017-05-02T03:19:06.668Z,20.5
2017-05-02T03:19:49.865Z,20.5
2017-05-02T03:20:32.513Z,20.55
2017-05-02T03:21:15.466Z,20.52
2017-05-02T03:21:58.803Z,20.5
2017-05-02T03:22:42.327Z,20.57
2017-05-02T03:23:26.900Z,20.57
2017-05-02T03:24:10.809Z,20.5
2017-05-02T03:24:54.796Z,20.51
2017-05-02T03:25:39.840Z,20.41
2017-05-02T03:26:23.806Z,20.41
2017-05-02T03:27:06.884Z,20.57
2017-05-02T03:27:51.323Z,20.55
2017-05-02T03:28:32.877Z,20.57
2017-05-02T03:29:17.816Z,20.52
2017-05-02T03:30:02.340Z,20.57
2017-05-02T03:30:46.325Z,20.48
2017-05-02T03:31:29.425Z,20.52
2017-05-02T03:32:12.005Z,20.47
2017-05-02T03:32:54.829Z,20.51
2017-05-02T03:33:38.765Z,20.57
2017-05-02T03:34:22.019Z,20.54
2017-05-02T03:35:06.861Z,20.54
2017-05-02T03:35:51.845Z,20.5
2017-05-02T03:36:35.869Z,20.48
2017-05-02T03:37:20.870Z,20.43
2017-05-02T03:38:03.830Z,20.55
2017-05-02T03:38:46.893Z,20.5
2017-05-02T03:39:30.821Z,20.39
2017-05-02T03:40:14.339Z,20.42
2017-05-02T03:40:57.551Z,20.36
2017-05-02T03:41:40.861Z,20.5
2017-05-02T03:42:23.981Z,20.47
2017-05-02T03:43:07.515Z,20.47
2017-05-02T03:43:50.319Z,20.54
2017-05-02T03:46:09.010Z,20.54
2017-05-02T03:46:53.022Z,20.52
2017-05-02T03:47:34.972Z,20.54
2017-05-02T03:48:19.029Z,20.48
2017-05-02T03:49:01.160Z,20.35
2017-05-02T03:49:45.029Z,20.48
2017-05-02T03:50:28.369Z,20.5
2017-05-02T03:51:11.816Z,20.52
2017-05-02T03:51:53.853Z,20.38
2017-05-02T03:52:36.053Z,20.5
2017-05-02T03:53:19.048Z,20.48
2017-05-02T03:54:01.548Z,20.61
2017-05-02T03:54:45.028Z,20.48
2017-05-02T03:55:29.962Z,20.48
2017-05-02T03:56:11.560Z,20.5
2017-05-02T03:56:56.118Z,20.51
2017-05-02T03:57:40.551Z,20.52
2017-05-02T03:58:24.177Z,20.51
2017-05-02T03:59:08.052Z,20.43
2017-05-02T03:59:51.023Z,20.47
2017-05-02T04:00:34.230Z,20.43
2017-05-02T04:01:18.024Z,20.43
2017-05-02T04:02:01.460Z,20.48
2017-05-02T04:02:44.568Z,20.48
2017-05-02T04:03:26.210Z,20.51
2017-05-02T04:04:10.021Z,20.52
2017-05-02T04:04:53.008Z,20.5
2017-05-02T04:05:36.016Z,20.5
2017-05-02T04:06:20.009Z,20.42
2017-05-02T04:07:03.259Z,20.51
2017-05-02T04:07:46.173Z,20.5
2017-05-02T04:08:30.257Z,20.52
2017-05-02T04:09:14.016Z,20.55
2017-05-02T04:09:55.744Z,20.48
2017-05-02T04:10:38.529Z,20.55
2017-05-02T04:11:23.046Z,20.48
2017-05-02T04:12:06.997Z,20.47
2017-05-02T04:12:50.556Z,20.43
2017-05-02T04:13:33.632Z,20.47
2017-05-02T04:14:18.031Z,20.48
2017-05-02T04:15:00.747Z,20.39
2017-05-02T04:15:44.522Z,20.5
2017-05-02T04:16:26.898Z,20.36
2017-05-02T04:17:09.231Z,20.5
2017-05-02T04:17:54.066Z,20.48
2017-05-02T04:18:37.263Z,20.48
2017-05-02T04:19:22.038Z,20.5
2017-05-02T04:20:07.084Z,20.5
2017-05-02T04:20:49.035Z,20.5
2017-05-02T04:21:33.021Z,20.59
2017-05-02T04:22:17.522Z,20.52
2017-05-02T04:23:02.535Z,20.48
2017-05-02T04:23:46.080Z,20.43
2017-05-02T04:24:29.546Z,20.38
2017-05-02T04:25:12.504Z,20.54
2017-05-02T04:27:17.844Z,20.48
2017-05-02T04:28:00.074Z,20.35
2017-05-02T04:28:44.221Z,20.48
2017-05-02T04:29:29.183Z,20.32
2017-05-02T04:30:13.204Z,20.48
2017-05-02T04:30:58.101Z,20.5
2017-05-02T04:31:41.687Z,20.42
2017-05-02T04:32:26.050Z,20.52
2017-05-02T04:33:11.191Z,20.51
2017-05-02T04:33:55.308Z,20.36
2017-05-02T04:34:38.151Z,20.48
2017-05-02T04:35:22.213Z,20.43
2017-05-02T04:36:04.654Z,20.51
2017-05-02T04:36:47.219Z,20.35
2017-05-02T04:37:31.221Z,20.42
2017-05-02T04:38:14.619Z,20.48
2017-05-02T04:38:58.147Z,20.43
2017-05-02T04:39:42.225Z,20.43
2017-05-02T04:40:26.405Z,20.52
2017-05-02T04:41:10.698Z,20.5
2017-05-02T04:41:55.754Z,20.43
2017-05-02T04:42:39.775Z,20.41
2017-05-02T04:43:24.248Z,20.41
2017-05-02T04:44:07.368Z,20.43
2017-05-02T04:44:50.599Z,20.43
2017-05-02T04:45:33.547Z,20.52
2017-05-02T04:46:15.533Z,20.43
2017-05-02T04:46:59.226Z,20.48
2017-05-02T04:48:55.876Z,20.47
2017-05-02T04:49:38.854Z,20.47
2017-05-02T04:50:23.866Z,20.51
2017-05-02T04:51:07.296Z,20.52
2017-05-02T04:51:50.355Z,20.39
2017-05-02T04:52:34.051Z,20.52
2017-05-02T04:53:16.547Z,20.52
2017-05-02T04:53:59.220Z,20.43
2017-05-02T04:54:43.366Z,20.55
2017-05-02T04:55:26.901Z,20.48
2017-05-02T04:56:10.378Z,20.55
2017-05-02T04:56:54.382Z,20.42
2017-05-02T04:57:38.361Z,20.52
2017-05-02T04:58:21.884Z,20.54
2017-05-02T04:59:06.903Z,20.52
2017-05-02T04:59:50.861Z,20.5
2017-05-02T05:00:33.277Z,20.52
2017-05-02T05:01:17.429Z,20.55
2017-05-02T05:02:00.876Z,20.42
2017-05-02T05:02:45.887Z,20.57
2017-05-02T05:03:28.631Z,20.57
2017-05-02T05:04:11.477Z,20.47
2017-05-02T05:04:55.359Z,20.43
2017-05-02T05:05:40.389Z,20.59
2017-05-02T05:06:22.442Z,20.47
2017-05-02T05:07:07.254Z,20.52
2017-05-02T05:07:51.129Z,20.51
2017-05-02T05:08:33.607Z,20.54
2017-05-02T05:09:17.891Z,20.48
2017-05-02T05:10:00.907Z,20.54
2017-05-02T05:10:44.241Z,20.48
2017-05-02T05:11:26.863Z,20.52
2017-05-02T05:12:09.498Z,20.62
2017-05-02T05:14:00.863Z,20.66
2017-05-02T05:14:43.888Z,20.79
2017-05-02T05:15:28.075Z,20.99
2017-05-02T05:16:11.431Z,21.44
2017-05-02T05:16:54.894Z,21.99
2017-05-02T05:17:38.095Z,22.33
2017-05-02T05:18:19.868Z,22.55
2017-05-02T05:19:01.742Z,22.68
2017-05-02T05:19:44.953Z,22.97
2017-05-02T05:20:27.422Z,23.25
2017-05-02T05:21:09.679Z,23.39
2017-05-02T05:21:51.854Z,23.6
2017-05-02T05:22:33.778Z,23.68
2017-05-02T05:23:15.895Z,23.94
2017-05-02T05:23:56.680Z,24.12
2017-05-02T05:24:38.630Z,24.24
2017-05-02T05:25:21.749Z,24.34
2017-05-02T05:26:06.886Z,24.49
2017-05-02T05:26:50.846Z,24.58
2017-05-02T05:27:33.821Z,24.77
2017-05-02T05:28:19.771Z,24.99
2017-05-02T05:29:00.590Z,25.08
2017-05-02T05:29:41.570Z,25.13
2017-05-02T05:30:25.089Z,25.18
2017-05-02T05:31:08.166Z,25.46
2017-05-02T05:31:50.817Z,25.57
2017-05-02T05:32:33.374Z,25.55
2017-05-02T05:33:14.994Z,25.61
2017-05-02T05:33:56.723Z,25.85
2017-05-02T05:34:39.181Z,26.05
2017-05-02T05:35:22.381Z,26.29
2017-05-02T05:36:04.920Z,26.55
2017-05-02T05:36:48.039Z,26.81
2017-05-02T05:37:31.372Z,27.03
2017-05-02T05:38:13.555Z,27.04
2017-05-02T05:38:55.693Z,27.25
2017-05-02T05:39:38.725Z,27.36
2017-05-02T05:40:21.953Z,27.5
2017-05-02T05:41:03.250Z,27.55
2017-05-02T05:42:29.235Z,27.82
2017-05-02T05:43:15.443Z,27.84
2017-05-02T05:43:58.383Z,27.81
2017-05-02T05:44:41.381Z,27.92
2017-05-02T05:45:24.892Z,28.11
2017-05-02T05:46:08.224Z,28.21
2017-05-02T05:46:50.094Z,28.3
2017-05-02T05:47:32.579Z,28.33
2017-05-02T05:48:13.652Z,28.67
2017-05-02T05:48:56.605Z,28.71
2017-05-02T05:49:38.390Z,28.89
2017-05-02T05:50:22.469Z,28.76
2017-05-02T05:51:06.641Z,28.98
2017-05-02T05:51:50.392Z,29.02
2017-05-02T05:52:32.882Z,29.21
2017-05-02T05:53:16.413Z,29.21
2017-05-02T05:53:59.596Z,29.15
2017-05-02T05:54:42.544Z,29.39
2017-05-02T05:55:24.906Z,29.31
2017-05-02T05:56:08.151Z,29.15
2017-05-02T05:56:53.301Z,28.7
2017-05-02T05:57:36.863Z,28.34
2017-05-02T05:58:19.300Z,27.57
2017-05-02T05:59:02.252Z,27.62
2017-05-02T05:59:44.244Z,28.12
2017-05-02T06:00:27.573Z,28.46
2017-05-02T06:01:12.442Z,28.71
2017-05-02T06:01:56.900Z,28.67
2017-05-02T06:02:39.313Z,28.59
2017-05-02T06:03:22.429Z,28.27
2017-05-02T06:04:05.923Z,27.82
2017-05-02T06:04:49.292Z,27.41
2017-05-02T06:05:33.425Z,26.91
2017-05-02T06:06:16.406Z,26.58
2017-05-02T06:07:01.424Z,26.13
2017-05-02T06:07:44.889Z,25.9
2017-05-02T06:09:35.815Z,25.24
2017-05-02T06:10:19.096Z,25.1
2017-05-02T06:11:02.242Z,24.91
2017-05-02T06:11:47.042Z,24.78
2017-05-02T06:12:30.549Z,24.71
2017-05-02T06:13:13.035Z,24.49
2017-05-02T06:13:55.601Z,24.49
2017-05-02T06:14:40.561Z,24.25
2017-05-02T06:15:25.110Z,24.08
2017-05-02T06:16:09.252Z,23.7
2017-05-02T06:16:52.585Z,23.42
2017-05-02T06:17:35.125Z,23.4
2017-05-02T06:18:16.406Z,23.43
2017-05-02T06:18:58.078Z,23.42
2017-05-02T06:19:39.191Z,23.38
2017-05-02T06:20:22.046Z,23.35
2017-05-02T06:21:06.071Z,23.32
2017-05-02T06:21:48.073Z,23.35
2017-05-02T06:22:32.070Z,23.28
2017-05-02T06:23:16.097Z,23.22
2017-05-02T06:24:01.106Z,23.23
2017-05-02T06:24:42.610Z,23.2
2017-05-02T06:25:26.745Z,23.16
2017-05-02T06:26:09.929Z,23.19
2017-05-02T06:26:53.046Z,23.17
2017-05-02T06:27:36.109Z,23.19
2017-05-02T06:28:20.721Z,23.05
2017-05-02T06:29:04.247Z,23.04
2017-05-02T06:29:49.082Z,23.04
2017-05-02T06:30:31.572Z,23.13
2017-05-02T06:31:13.954Z,23
2017-05-02T06:31:54.869Z,23.02
2017-05-02T06:32:35.976Z,22.94
2017-05-02T06:33:17.744Z,22.97
2017-05-02T06:34:01.561Z,23.01
2017-05-02T06:34:44.453Z,22.97
2017-05-02T06:35:26.090Z,23.01
2017-05-02T06:36:08.601Z,23.01
2017-05-02T06:36:51.555Z,23.02
2017-05-02T06:37:32.608Z,23.01
2017-05-02T06:38:13.888Z,23.07
2017-05-02T06:38:55.663Z,23.1
2017-05-02T06:39:37.831Z,23.09
2017-05-02T06:40:19.879Z,23.07
2017-05-02T06:41:02.642Z,23.15
2017-05-02T06:41:45.829Z,23.15
2017-05-02T06:42:26.787Z,23.13
2017-05-02T06:43:08.337Z,23.1
2017-05-02T06:43:50.559Z,23.15
2017-05-02T06:44:32.363Z,23.22
2017-05-02T06:45:15.645Z,23.17
2017-05-02T06:45:56.666Z,23.19
2017-05-02T06:46:40.043Z,23.16
2017-05-02T06:47:23.052Z,23.22
2017-05-02T06:48:06.241Z,23.27
2017-05-02T06:48:49.623Z,23.2
2017-05-02T06:50:41.228Z,23.23
2017-05-02T06:51:24.214Z,23.28
2017-05-02T06:52:07.727Z,23.23
2017-05-02T06:52:50.704Z,23.25
2017-05-02T06:53:34.930Z,23.31
2017-05-02T06:54:16.795Z,23.25
2017-05-02T06:54:59.557Z,23.22
2017-05-02T06:55:43.283Z,23.35
2017-05-02T06:56:26.759Z,23.27
2017-05-02T06:57:08.556Z,23.23
2017-05-02T06:57:49.448Z,23.23
2017-05-02T06:58:31.295Z,23.23
2017-05-02T06:59:12.155Z,23.33
2017-05-02T06:59:53.709Z,23.23
2017-05-02T07:00:36.471Z,23.15
2017-05-02T07:01:19.222Z,23.2
2017-05-02T07:02:02.249Z,23.27
2017-05-02T07:02:46.235Z,23.36
2017-05-02T07:03:29.382Z,23.2
2017-05-02T07:04:11.726Z,23.23
2017-05-02T07:04:53.369Z,23.25
2017-05-02T07:05:35.767Z,23.16
2017-05-02T07:06:18.513Z,23.27
2017-05-02T07:07:01.255Z,23.22
2017-05-02T07:07:42.632Z,23.25
2017-05-02T07:08:25.739Z,23.36
2017-05-02T07:09:08.775Z,23.36
2017-05-02T07:09:50.634Z,23.4
2017-05-02T07:10:33.482Z,23.51
2017-05-02T07:11:16.059Z,23.46
2017-05-02T07:11:59.027Z,23.53
2017-05-02T07:12:41.567Z,23.47
2017-05-02T07:13:23.092Z,23.48
2017-05-02T07:14:07.230Z,23.48
2017-05-02T07:14:49.743Z,23.4
2017-05-02T07:15:33.860Z,23.39
2017-05-02T07:16:16.788Z,23.47
2017-05-02T07:16:59.083Z,23.42
2017-05-02T07:17:41.457Z,23.53
2017-05-02T07:18:22.559Z,23.47
2017-05-02T07:19:05.431Z,23.39
2017-05-02T07:20:02.318Z,23.42
2017-05-02T07:20:44.295Z,23.47
2017-05-02T07:21:27.757Z,23.51
2017-05-02T07:22:11.098Z,23.46
2017-05-02T07:22:52.738Z,23.55
2017-05-02T07:23:34.723Z,23.48
2017-05-02T07:24:16.801Z,23.5
2017-05-02T07:24:58.053Z,23.54
2017-05-02T07:25:40.535Z,23.63
2017-05-02T07:26:21.757Z,23.65
2017-05-02T07:27:04.949Z,23.63
2017-05-02T07:27:46.800Z,23.68
2017-05-02T07:28:29.075Z,23.73
2017-05-02T07:29:11.281Z,23.79
2017-05-02T07:31:01.848Z,23.61
2017-05-02T07:31:43.840Z,23.58
2017-05-02T07:32:25.202Z,23.53
2017-05-02T07:33:08.064Z,23.65
2017-05-02T07:33:50.102Z,23.72
2017-05-02T07:34:33.217Z,23.75
2017-05-02T07:35:15.060Z,23.78
2017-05-02T07:35:58.329Z,23.84
2017-05-02T07:36:40.982Z,23.76
2017-05-02T07:37:23.434Z,23.79
2017-05-02T07:38:05.040Z,23.78
2017-05-02T07:38:47.510Z,23.79
2017-05-02T07:39:28.849Z,23.84
2017-05-02T07:40:10.541Z,23.83
2017-05-02T07:40:53.676Z,23.8
2017-05-02T07:41:36.333Z,23.79
2017-05-02T07:42:18.709Z,23.91
2017-05-02T07:43:01.163Z,23.94
2017-05-02T07:43:42.278Z,24.06
2017-05-02T07:44:24.038Z,24.02
2017-05-02T07:45:05.029Z,24.1
2017-05-02T07:45:47.215Z,24.06
2017-05-02T07:46:28.605Z,24.09
2017-05-02T07:47:12.194Z,23.97
2017-05-02T07:47:53.709Z,24.06
2017-05-02T07:48:35.077Z,24.08
2017-05-02T07:49:18.033Z,24.1
2017-05-02T07:51:18.765Z,23.95
2017-05-02T07:52:00.908Z,24.15
2017-05-02T07:52:42.449Z,24.03
2017-05-02T07:53:23.881Z,24.08
2017-05-02T07:54:06.894Z,24.09
2017-05-02T07:54:50.954Z,24.1
2017-05-02T07:55:33.456Z,24.16
2017-05-02T07:56:14.974Z,24.08
2017-05-02T07:56:58.099Z,24.18
2017-05-02T07:57:41.985Z,24.12
2017-05-02T07:58:25.135Z,24.13
2017-05-02T07:59:07.366Z,24.1
2017-05-02T07:59:49.459Z,24.15
2017-05-02T08:00:31.874Z,24.06
2017-05-02T08:01:14.135Z,24.22
2017-05-02T08:01:56.505Z,24.3
2017-05-02T08:02:39.215Z,24.28
2017-05-02T08:03:21.938Z,24.27
2017-05-02T08:04:04.430Z,24.28
2017-05-02T08:04:47.975Z,24.31
2017-05-02T08:05:29.417Z,24.28
2017-05-02T08:06:11.507Z,24.3
2017-05-02T08:06:52.952Z,24.22
2017-05-02T08:07:35.848Z,24.16
2017-05-02T08:08:18.073Z,24.24
2017-05-02T08:09:00.431Z,24.22
2017-05-02T08:09:43.479Z,24.2
2017-05-02T08:10:27.476Z,24.37
2017-05-02T08:11:09.906Z,24.31
2017-05-02T08:11:53.041Z,24.37
2017-05-02T08:12:35.103Z,24.34
2017-05-02T08:13:17.229Z,24.3
2017-05-02T08:13:59.320Z,24.31
2017-05-02T08:14:41.411Z,24.28
2017-05-02T08:15:23.239Z,24.27
2017-05-02T08:16:04.307Z,24.31
2017-05-02T08:16:45.136Z,24.31
2017-05-02T08:17:26.925Z,24.35
2017-05-02T08:18:07.921Z,24.4
2017-05-02T08:18:48.880Z,24.37
2017-05-02T08:19:29.790Z,24.42
2017-05-02T08:20:10.809Z,24.31
2017-05-02T08:21:50.983Z,24.21
2017-05-02T08:22:32.826Z,24.31
2017-05-02T08:23:13.725Z,24.28
2017-05-02T08:23:54.768Z,24.28
